Time;durP1;ratioP1;P1;durP2;ratioP2;P2;SDS_P1;SDS_P2;PMS_P1;PMS_P2;Temp;Humidity;BMP_temperature;BMP_pressure;BME280_temperature;BME280_humidity;BME280_pressure;Samples;Min_cycle;Max_cycle;Signal;HPM_P1;HPM_P2
2022/06/06 00:01:44;;;;;;;32.83;13.53;;;17.90;99.90;;;;;;5051358;28;21188;-72
2022/06/06 00:04:11;;;;;;;28.13;16.77;;;17.80;99.90;;;;;;5048504;28;20452;-71
2022/06/06 00:06:39;;;;;;;26.10;13.10;;;17.90;99.90;;;;;;5052111;28;20558;-71
2022/06/06 00:09:06;;;;;;;27.10;16.53;;;17.90;99.90;;;;;;5046597;28;20467;-71
2022/06/06 00:11:34;;;;;;;29.87;14.53;;;17.90;99.90;;;;;;5052796;28;20542;-72
2022/06/06 00:14:01;;;;;;;24.67;14.23;;;17.90;99.90;;;;;;5044898;28;20650;-72
2022/06/06 00:16:29;;;;;;;26.10;14.57;;;17.90;99.90;;;;;;5045842;28;20582;-72
2022/06/06 00:18:56;;;;;;;28.53;14.50;;;17.80;99.90;;;;;;5058478;28;20462;-71
2022/06/06 00:21:24;;;;;;;27.67;17.83;;;17.80;99.90;;;;;;5056619;28;20935;-72
2022/06/06 00:23:53;;;;;;;34.53;18.50;;;17.70;99.90;;;;;;5057755;28;20469;-72
2022/06/06 00:26:19;;;;;;;45.90;24.93;;;17.60;99.90;;;;;;5058711;28;20479;-72
2022/06/06 00:28:49;;;;;;;32.20;15.73;;;17.60;99.90;;;;;;5033949;28;20447;-73
2022/06/06 00:36:45;;;;;;;38.37;20.97;;;17.50;99.90;;;;;;5054715;28;20693;-73
2022/06/06 00:39:15;;;;;;;58.63;22.73;;;17.40;99.90;;;;;;5060157;28;20465;-72
2022/06/06 00:41:46;;;;;;;33.40;19.50;;;17.30;99.90;;;;;;5055081;28;21089;-72
2022/06/06 00:44:15;;;;;;;52.17;26.20;;;17.40;99.90;;;;;;5057709;28;20453;-72
2022/06/06 00:46:45;;;;;;;41.43;19.00;;;17.20;99.90;;;;;;5052192;28;20583;-73
2022/06/06 00:49:18;;;;;;;58.57;29.20;;;17.10;99.90;;;;;;5058244;28;20467;-72
2022/06/06 00:51:45;;;;;;;51.87;23.20;;;17.00;99.90;;;;;;5054504;28;20451;-71
2022/06/06 00:54:12;;;;;;;50.37;26.07;;;16.90;99.90;;;;;;5049723;28;20509;-71
2022/06/06 00:56:43;;;;;;;23.33;15.47;;;16.80;99.90;;;;;;5055230;28;20928;-71
2022/06/06 00:59:13;;;;;;;53.67;24.10;;;16.80;99.90;;;;;;5050548;28;20554;-73
2022/06/06 01:01:41;;;;;;;52.23;23.03;;;16.70;99.90;;;;;;5054356;28;20459;-72
2022/06/06 01:04:09;;;;;;;52.10;24.90;;;16.80;99.90;;;;;;5050547;28;20461;-71
2022/06/06 01:06:41;;;;;;;44.73;23.50;;;16.80;99.90;;;;;;5061164;28;20461;-72
2022/06/06 01:09:09;;;;;;;53.00;22.90;;;16.80;99.90;;;;;;5051381;28;20463;-72
2022/06/06 01:11:38;;;;;;;46.53;24.87;;;16.80;99.90;;;;;;5051056;28;20731;-72
2022/06/06 01:14:07;;;;;;;41.83;23.20;;;16.80;99.90;;;;;;5050902;28;20486;-71
2022/06/06 01:16:43;;;;;;;55.03;21.73;;;16.80;99.90;;;;;;5057329;28;20483;-71
2022/06/06 01:19:37;;;;;;;33.73;17.80;;;16.80;99.90;;;;;;5054286;28;20538;-72
2022/06/06 01:22:32;;;;;;;45.87;20.93;;;16.80;99.90;;;;;;5051383;28;20494;-70
2022/06/06 01:25:21;;;;;;;27.20;12.87;;;16.60;99.90;;;;;;5059597;28;20478;-72
2022/06/06 01:27:56;;;;;;;34.37;18.97;;;16.60;99.90;;;;;;5055529;28;20467;-70
2022/06/06 01:30:30;;;;;;;30.50;16.70;;;16.50;99.90;;;;;;5052416;28;20440;-71
2022/06/06 01:33:01;;;;;;;44.00;22.00;;;16.60;99.90;;;;;;5055229;28;20497;-72
2022/06/06 01:35:31;;;;;;;34.87;18.00;;;16.60;99.90;;;;;;5056465;28;21439;-71
2022/06/06 01:37:58;;;;;;;47.90;19.70;;;16.70;99.90;;;;;;5053831;28;20482;-72
2022/06/06 01:40:29;;;;;;;49.27;18.80;;;16.80;99.90;;;;;;5055608;28;20546;-72
2022/06/06 01:43:00;;;;;;;39.37;20.07;;;16.70;99.90;;;;;;5055624;28;20458;-73
2022/06/06 01:45:34;;;;;;;46.40;19.67;;;16.80;99.90;;;;;;5058710;28;20535;-71
2022/06/06 01:48:05;;;;;;;30.93;16.80;;;16.90;99.90;;;;;;5055195;28;20501;-71
2022/06/06 01:50:32;;;;;;;44.10;19.53;;;16.80;99.90;;;;;;5051258;28;20468;-71
2022/06/06 01:53:02;;;;;;;37.30;17.97;;;16.80;99.90;;;;;;5054172;28;21011;-72
2022/06/06 01:55:31;;;;;;;37.80;18.73;;;16.70;99.90;;;;;;5058769;28;20451;-73
2022/06/06 01:58:02;;;;;;;31.17;15.53;;;16.70;99.90;;;;;;5057050;28;20549;-72
2022/06/06 02:00:32;;;;;;;30.30;13.63;;;16.70;99.90;;;;;;5056170;28;21720;-73
2022/06/06 02:02:59;;;;;;;32.70;17.30;;;16.70;99.90;;;;;;5057591;28;20432;-73
2022/06/06 02:05:26;;;;;;;31.80;13.10;;;16.80;99.90;;;;;;5054976;28;20459;-72
2022/06/06 02:07:53;;;;;;;38.30;19.20;;;16.80;99.90;;;;;;5055808;28;20717;-72
2022/06/06 02:10:21;;;;;;;20.73;11.67;;;16.90;99.90;;;;;;5056200;28;20923;-73
2022/06/06 02:12:48;;;;;;;38.57;17.20;;;16.90;99.90;;;;;;5054218;28;20465;-73
2022/06/06 02:15:18;;;;;;;26.97;12.40;;;16.80;99.90;;;;;;5057062;28;20473;-71
2022/06/06 02:17:46;;;;;;;37.40;16.50;;;16.80;99.90;;;;;;5053160;28;20482;-71
2022/06/06 02:20:15;;;;;;;25.30;13.40;;;16.70;99.90;;;;;;5055371;28;20451;-73
2022/06/06 02:22:43;;;;;;;31.80;16.57;;;16.70;99.90;;;;;;5056340;28;20826;-72
2022/06/06 02:25:11;;;;;;;30.93;16.30;;;16.60;99.90;;;;;;5057087;28;20451;-71
2022/06/06 02:27:39;;;;;;;30.33;15.90;;;16.70;99.90;;;;;;5055468;28;20507;-72
2022/06/06 02:30:10;;;;;;;36.60;16.70;;;16.80;99.90;;;;;;5051758;28;20474;-72
2022/06/06 02:32:37;;;;;;;23.97;13.07;;;16.80;99.90;;;;;;5054120;28;20461;-73
2022/06/06 02:35:06;;;;;;;25.27;14.60;;;16.70;99.90;;;;;;5056187;28;20487;-70
2022/06/06 02:37:36;;;;;;;29.33;15.77;;;16.40;99.90;;;;;;5058090;28;20593;-72
2022/06/06 02:40:03;;;;;;;28.77;14.50;;;16.30;99.90;;;;;;5057030;28;20459;-71
2022/06/06 02:42:30;;;;;;;28.90;17.40;;;16.30;99.90;;;;;;5058013;28;20533;-72
2022/06/06 02:44:57;;;;;;;30.53;14.47;;;16.30;99.90;;;;;;5057783;28;20447;-71
2022/06/06 02:47:24;;;;;;;34.57;14.73;;;16.30;99.90;;;;;;5058243;28;20487;-71
2022/06/06 02:49:51;;;;;;;26.90;13.07;;;16.30;99.90;;;;;;5064125;28;20977;-73
2022/06/06 02:52:19;;;;;;;30.17;15.20;;;16.30;99.90;;;;;;5053979;28;20469;-71
2022/06/06 02:54:46;;;;;;;42.10;16.30;;;16.20;99.90;;;;;;5056430;28;20460;-72
2022/06/06 02:57:12;;;;;;;36.27;12.97;;;16.20;99.90;;;;;;5051398;28;20483;-72
2022/06/06 02:59:43;;;;;;;30.90;14.47;;;16.20;99.90;;;;;;5056147;28;20559;-72
2022/06/06 03:02:10;;;;;;;31.80;14.17;;;16.20;99.90;;;;;;5051181;28;20486;-71
2022/06/06 03:04:39;;;;;;;24.17;12.90;;;16.20;99.90;;;;;;5061642;28;20466;-71
2022/06/06 03:07:18;;;;;;;29.00;11.60;;;16.20;99.90;;;;;;5050016;28;20561;-71
2022/06/06 03:09:59;;;;;;;37.60;13.77;;;16.20;99.90;;;;;;5052297;28;20451;-71
2022/06/06 03:12:39;;;;;;;21.93;12.17;;;16.20;99.90;;;;;;5053859;28;20462;-71
2022/06/06 03:15:29;;;;;;;29.70;12.50;;;16.10;99.90;;;;;;5050841;28;20492;-71
2022/06/06 03:21:02;;;;;;;28.33;11.00;;;16.20;99.90;;;;;;5057782;28;20589;-71
2022/06/06 03:23:52;;;;;;;18.00;10.80;;;16.20;99.90;;;;;;5054261;28;20459;-70
2022/06/06 03:26:32;;;;;;;32.97;13.90;;;16.20;99.90;;;;;;5052750;28;20577;-71
2022/06/06 03:29:12;;;;;;;29.93;12.63;;;16.10;99.90;;;;;;5060504;28;20455;-72
2022/06/06 03:31:47;;;;;;;22.10;11.20;;;16.10;99.90;;;;;;5049025;28;20558;-71
2022/06/06 03:34:21;;;;;;;27.93;12.23;;;16.20;99.90;;;;;;5056755;28;20489;-72
2022/06/06 03:36:53;;;;;;;29.33;12.07;;;16.30;99.90;;;;;;5055522;28;20497;-72
2022/06/06 03:39:30;;;;;;;26.70;11.27;;;16.30;99.90;;;;;;5053601;28;20466;-71
2022/06/06 03:42:05;;;;;;;29.53;12.43;;;16.40;99.90;;;;;;5050465;28;20469;-71
2022/06/06 03:44:48;;;;;;;36.40;12.73;;;16.40;99.90;;;;;;5055029;28;20459;-71
2022/06/06 03:47:26;;;;;;;20.77;12.07;;;16.40;99.90;;;;;;5052968;28;20505;-73
2022/06/06 03:50:03;;;;;;;25.53;12.83;;;16.50;99.90;;;;;;5060070;28;20479;-71
2022/06/06 03:52:43;;;;;;;23.53;12.73;;;16.30;99.90;;;;;;5043648;28;20467;-71
2022/06/06 03:55:18;;;;;;;30.33;13.07;;;16.30;99.90;;;;;;5054478;28;20585;-72
2022/06/06 03:57:48;;;;;;;22.47;12.33;;;16.30;99.90;;;;;;5070606;22;20475;-68
2022/06/06 04:00:16;;;;;;;23.63;9.97;;;16.10;99.90;;;;;;4998202;28;20496;-69
2022/06/06 04:02:45;;;;;;;26.37;11.20;;;16.10;99.90;;;;;;5008267;28;20917;-69
2022/06/06 04:05:15;;;;;;;26.03;13.30;;;16.10;99.90;;;;;;4999651;28;20862;-69
2022/06/06 04:07:42;;;;;;;30.83;13.03;;;16.20;99.90;;;;;;5003138;28;20489;-69
2022/06/06 04:10:10;;;;;;;30.30;13.47;;;16.30;99.90;;;;;;5029380;28;20583;-67
2022/06/06 04:13:05;;;;;;;27.47;13.83;;;16.20;99.90;;;;;;5023986;28;20453;-68
2022/06/06 04:15:40;;;;;;;21.30;10.80;;;16.40;99.90;;;;;;5026934;28;20945;-68
2022/06/06 04:18:16;;;;;;;25.30;12.90;;;16.50;99.90;;;;;;5029250;28;21223;-68
2022/06/06 04:20:55;;;;;;;27.10;13.77;;;16.50;99.90;;;;;;5029592;28;20785;-67
2022/06/06 04:23:31;;;;;;;30.47;13.53;;;16.50;99.90;;;;;;5026789;28;20845;-68
2022/06/06 04:26:10;;;;;;;33.73;13.97;;;16.60;99.90;;;;;;5030160;28;20466;-67
2022/06/06 04:28:49;;;;;;;17.10;8.17;;;16.60;99.90;;;;;;5027920;28;20482;-66
2022/06/06 04:31:23;;;;;;;18.00;11.17;;;16.60;99.90;;;;;;5031215;28;20457;-66
2022/06/06 04:34:00;;;;;;;20.30;10.30;;;16.40;99.90;;;;;;5028600;28;20487;-68
2022/06/06 04:36:33;;;;;;;15.93;8.37;;;16.40;99.90;;;;;;5025655;28;20464;-67
2022/06/06 04:39:06;;;;;;;17.50;8.50;;;16.40;99.90;;;;;;5022494;28;20514;-67
2022/06/06 04:41:40;;;;;;;17.10;9.63;;;16.50;99.90;;;;;;5026775;28;20605;-68
2022/06/06 04:44:16;;;;;;;19.20;10.03;;;16.60;99.90;;;;;;5028459;28;20613;-68
2022/06/06 04:46:48;;;;;;;18.47;7.20;;;16.70;99.90;;;;;;5030994;28;20860;-68
2022/06/06 04:49:15;;;;;;;20.60;9.40;;;16.70;99.90;;;;;;5032313;28;20475;-67
2022/06/06 04:51:44;;;;;;;11.33;6.33;;;16.70;99.90;;;;;;5028786;28;20459;-68
2022/06/06 04:54:16;;;;;;;11.30;7.40;;;16.80;99.90;;;;;;5030610;28;20494;-68
2022/06/06 04:56:44;;;;;;;16.43;8.90;;;16.70;99.90;;;;;;5033029;28;20988;-68
2022/06/06 04:59:16;;;;;;;14.07;7.67;;;16.80;99.90;;;;;;5028095;28;20642;-69
2022/06/06 05:01:43;;;;;;;10.63;6.50;;;16.70;99.90;;;;;;5028397;28;21088;-67
2022/06/06 05:04:10;;;;;;;14.90;8.47;;;16.70;99.90;;;;;;5033230;28;20449;-67
2022/06/06 05:07:00;;;;;;;10.77;7.07;;;16.70;99.90;;;;;;5026542;28;20875;-68
2022/06/06 05:09:53;;;;;;;15.30;7.20;;;16.60;99.90;;;;;;5025168;28;21119;-68
2022/06/06 05:12:39;;;;;;;13.83;6.67;;;16.60;99.90;;;;;;5027843;28;20991;-66
2022/06/06 05:15:30;;;;;;;8.03;5.20;;;16.60;99.90;;;;;;5022747;28;20598;-69
2022/06/06 05:18:09;;;;;;;13.30;6.80;;;16.70;99.90;;;;;;5032046;28;20459;-68
2022/06/06 05:20:50;;;;;;;14.57;8.20;;;16.60;99.90;;;;;;5027912;28;20546;-68
2022/06/06 05:23:41;;;;;;;14.63;6.07;;;16.60;99.90;;;;;;5031208;28;20832;-67
2022/06/06 05:26:22;;;;;;;8.33;5.50;;;16.60;99.90;;;;;;4988494;28;20801;-67
2022/06/06 05:29:18;;;;;;;9.30;5.87;;;16.80;99.90;;;;;;5034356;28;20488;-68
2022/06/06 05:31:59;;;;;;;10.43;6.30;;;16.80;99.90;;;;;;5038370;28;20459;-67
2022/06/06 05:34:32;;;;;;;8.47;6.70;;;16.70;99.90;;;;;;5039707;28;20479;-68
2022/06/06 05:37:15;;;;;;;9.17;4.10;;;16.70;99.90;;;;;;5039087;28;20565;-67
2022/06/06 05:40:03;;;;;;;7.63;5.53;;;16.60;99.90;;;;;;5035079;28;20488;-67
2022/06/06 05:42:44;;;;;;;6.90;4.13;;;16.40;99.90;;;;;;5027934;28;20449;-68
2022/06/06 05:45:20;;;;;;;7.60;4.67;;;16.40;99.90;;;;;;5037357;28;20576;-67
2022/06/06 05:48:01;;;;;;;8.30;4.23;;;16.50;99.90;;;;;;5037982;28;20474;-66
2022/06/06 05:50:39;;;;;;;6.37;4.10;;;16.60;99.90;;;;;;5038529;28;20594;-67
2022/06/06 05:53:34;;;;;;;8.83;3.83;;;16.60;99.90;;;;;;5042293;28;20460;-68
2022/06/06 05:56:22;;;;;;;5.40;3.10;;;16.70;99.90;;;;;;5041901;28;20616;-68
2022/06/06 05:59:07;;;;;;;6.03;4.23;;;16.80;99.90;;;;;;5035800;28;20483;-67
2022/06/06 06:01:52;;;;;;;5.57;4.20;;;16.90;99.90;;;;;;5039551;28;20559;-69
2022/06/06 06:04:56;;;;;;;12.00;5.60;;;17.00;99.90;;;;;;5038620;28;20482;-68
2022/06/06 06:07:29;;;;;;;6.73;4.60;;;16.90;99.90;;;;;;5039140;28;20459;-68
2022/06/06 06:10:11;;;;;;;5.77;4.23;;;16.90;99.90;;;;;;5035953;28;20482;-67
2022/06/06 06:13:05;;;;;;;5.87;5.27;;;17.00;99.90;;;;;;5036400;28;20452;-68
2022/06/06 06:15:36;;;;;;;6.30;4.70;;;17.10;99.90;;;;;;5032688;28;20525;-68
2022/06/06 06:18:09;;;;;;;6.60;4.47;;;17.30;99.90;;;;;;5030994;28;20476;-68
2022/06/06 06:20:43;;;;;;;6.10;3.90;;;17.60;99.90;;;;;;5039872;28;20476;-67
2022/06/06 06:23:15;;;;;;;14.37;6.57;;;17.80;99.90;;;;;;5040892;28;20463;-69
2022/06/06 06:25:45;;;;;;;7.57;3.67;;;18.00;99.90;;;;;;5039529;28;20452;-68
2022/06/06 06:28:13;;;;;;;7.00;4.23;;;18.60;99.90;;;;;;5035359;28;21047;-69
2022/06/06 06:31:00;;;;;;;4.40;3.30;;;19.30;99.90;;;;;;5025897;28;20460;-68
2022/06/06 06:33:40;;;;;;;8.40;4.23;;;19.50;99.90;;;;;;5023605;28;20464;-67
2022/06/06 06:36:20;;;;;;;5.70;3.53;;;19.80;99.90;;;;;;5032722;28;20501;-67
2022/06/06 06:39:05;;;;;;;7.03;5.00;;;20.10;99.90;;;;;;5016612;28;20483;-68
2022/06/06 06:41:41;;;;;;;5.20;4.00;;;20.10;99.90;;;;;;5034162;28;20469;-68
2022/06/06 06:44:10;;;;;;;5.63;4.20;;;20.30;99.90;;;;;;5015543;28;20472;-67
2022/06/06 06:46:41;;;;;;;3.43;2.40;;;20.30;99.90;;;;;;5016816;28;20457;-66
2022/06/06 06:49:20;;;;;;;3.77;3.17;;;20.30;99.90;;;;;;5033684;28;20573;-68
2022/06/06 06:52:00;;;;;;;7.63;3.30;;;19.90;99.90;;;;;;5030181;28;20499;-68
2022/06/06 06:54:50;;;;;;;4.80;3.87;;;19.80;99.90;;;;;;5028755;28;20547;-66
2022/06/06 06:57:26;;;;;;;4.30;3.60;;;20.00;99.90;;;;;;5025094;28;20975;-67
2022/06/06 07:00:07;;;;;;;3.60;3.30;;;19.90;99.90;;;;;;5029819;28;20494;-67
2022/06/06 07:08:37;;;;;;;5.57;3.77;;;20.70;99.90;;;;;;5025772;28;20534;-66
2022/06/06 07:11:19;;;;;;;3.03;2.30;;;20.90;99.90;;;;;;5036649;28;20617;-67
2022/06/06 07:14:02;;;;;;;3.67;2.90;;;21.00;99.90;;;;;;5038315;28;20465;-68
2022/06/06 07:16:30;;;;;;;3.80;2.77;;;21.00;99.90;;;;;;5028811;28;20914;-67
2022/06/06 07:19:04;;;;;;;4.40;3.67;;;21.00;99.90;;;;;;5029722;28;20476;-68
2022/06/06 07:21:33;;;;;;;2.23;1.70;;;21.50;99.90;;;;;;5031291;28;20471;-68
2022/06/06 07:24:05;;;;;;;4.07;3.50;;;20.90;99.90;;;;;;5027869;28;20472;-67
2022/06/06 07:26:38;;;;;;;5.70;2.90;;;20.70;99.90;;;;;;5027558;28;20518;-69
2022/06/06 07:29:06;;;;;;;3.07;2.23;;;21.20;99.90;;;;;;5028693;28;20838;-67
2022/06/06 07:31:48;;;;;;;2.10;1.80;;;21.10;99.90;;;;;;5019013;28;20463;-68
2022/06/06 07:34:49;;;;;;;2.60;2.40;;;21.20;99.90;;;;;;5023265;28;21134;-67
2022/06/06 07:37:28;;;;;;;4.40;2.73;;;21.40;99.90;;;;;;5030489;28;20809;-68
2022/06/06 07:40:06;;;;;;;3.37;2.50;;;21.80;99.90;;;;;;5016882;28;20485;-66
2022/06/06 07:43:12;;;;;;;2.63;1.83;;;21.60;99.90;;;;;;5022142;28;20466;-66
2022/06/06 07:45:43;;;;;;;2.70;1.90;;;20.80;99.90;;;;;;5030120;28;20456;-68
2022/06/06 07:48:31;;;;;;;2.40;1.90;;;20.30;99.90;;;;;;5023320;28;20475;-69
2022/06/06 07:51:04;;;;;;;3.27;2.17;;;20.50;99.90;;;;;;5027424;28;20449;-68
2022/06/06 07:53:40;;;;;;;2.70;2.47;;;21.20;99.90;;;;;;5025614;28;20540;-67
2022/06/06 07:56:15;;;;;;;2.67;1.90;;;21.40;99.90;;;;;;5014206;28;20522;-68
2022/06/06 07:58:55;;;;;;;5.40;1.90;;;22.20;99.90;;;;;;5017515;28;20487;-67
2022/06/06 08:01:33;;;;;;;4.20;1.67;;;22.90;99.90;;;;;;5017807;28;20460;-67
2022/06/06 08:04:12;;;;;;;2.90;2.00;;;22.80;99.90;;;;;;5020962;28;20471;-68
2022/06/06 08:06:46;;;;;;;2.60;2.10;;;23.10;99.90;;;;;;5018515;28;20470;-68
2022/06/06 08:09:29;;;;;;;3.10;2.63;;;23.50;99.90;;;;;;5016502;28;20475;-69
2022/06/06 08:12:16;;;;;;;2.77;2.00;;;23.20;99.90;;;;;;5016937;28;20460;-68
2022/06/06 08:15:02;;;;;;;4.43;2.40;;;22.50;99.90;;;;;;5025781;28;20460;-68
2022/06/06 08:17:43;;;;;;;3.33;2.30;;;22.10;99.90;;;;;;5025368;28;20456;-68
2022/06/06 08:20:19;;;;;;;5.03;2.30;;;22.40;99.90;;;;;;5019040;28;20466;-68
2022/06/06 08:22:47;;;;;;;3.10;2.00;;;23.30;99.90;;;;;;5015006;28;21232;-67
2022/06/06 08:25:16;;;;;;;2.63;1.90;;;23.40;99.90;;;;;;5025528;28;20460;-67
2022/06/06 08:27:48;;;;;;;3.03;2.53;;;23.20;99.90;;;;;;5025960;28;20486;-67
2022/06/06 08:30:16;;;;;;;3.20;2.23;;;23.60;99.90;;;;;;5023481;28;20487;-67
2022/06/06 08:32:42;;;;;;;4.93;2.10;;;24.30;99.90;;;;;;5032398;28;20957;-67
2022/06/06 08:35:10;;;;;;;1.87;1.37;;;24.80;99.90;;;;;;5030370;28;20489;-68
2022/06/06 08:38:06;;;;;;;2.40;2.00;;;25.00;99.90;;;;;;5033756;28;20456;-67
2022/06/06 08:41:11;;;;;;;2.97;1.80;;;25.00;99.90;;;;;;5022683;28;21239;-68
2022/06/06 08:44:05;;;;;;;1.83;1.33;;;25.00;99.90;;;;;;5027445;28;20481;-69
2022/06/06 08:46:42;;;;;;;1.83;1.30;;;25.50;99.90;;;;;;5029677;28;20467;-68
2022/06/06 08:52:12;;;;;;;1.60;1.30;;;24.30;99.90;;;;;;5027820;28;20456;-68
2022/06/06 08:55:16;;;;;;;1.57;1.17;;;24.20;99.90;;;;;;5034854;28;20476;-69
2022/06/06 08:58:10;;;;;;;1.37;1.27;;;24.50;99.90;;;;;;5025182;28;21181;-68
2022/06/06 09:00:54;;;;;;;1.73;1.43;;;24.10;99.90;;;;;;5032404;28;20463;-68
2022/06/06 09:04:12;;;;;;;3.10;1.20;;;23.70;99.90;;;;;;5035916;28;20471;-68
2022/06/06 09:07:24;;;;;;;2.30;1.90;;;23.30;99.90;;;;;;4963291;28;20526;-67
2022/06/06 09:10:28;;;;;;;1.33;1.00;;;23.10;99.90;;;;;;5030386;28;20498;-68
2022/06/06 09:13:34;;;;;;;1.83;1.20;;;23.70;99.90;;;;;;4992254;28;20464;-68
2022/06/06 09:16:38;;;;;;;1.60;1.10;;;23.00;99.90;;;;;;5032803;28;20499;-67
2022/06/06 09:19:32;;;;;;;3.07;1.47;;;22.50;99.90;;;;;;5029673;28;20479;-68
2022/06/06 09:22:23;;;;;;;1.57;1.07;;;22.70;99.90;;;;;;5030316;28;20487;-68
2022/06/06 09:25:13;;;;;;;1.43;1.00;;;23.10;99.90;;;;;;5008275;28;20459;-68
2022/06/06 09:28:11;;;;;;;1.70;1.00;;;22.70;99.90;;;;;;5029902;28;20456;-68
2022/06/06 09:31:16;;;;;;;1.87;1.77;;;22.50;99.90;;;;;;5022925;28;20537;-67
2022/06/06 09:34:22;;;;;;;3.40;1.20;;;22.60;99.90;;;;;;5034618;28;20474;-66
2022/06/06 09:37:04;;;;;;;2.40;1.40;;;23.20;99.90;;;;;;5024842;28;20511;-68
2022/06/06 09:39:36;;;;;;;1.50;1.00;;;23.60;99.90;;;;;;5027371;28;20522;-67
2022/06/06 09:42:16;;;;;;;3.60;1.50;;;24.40;99.90;;;;;;5029225;28;20463;-67
2022/06/06 09:45:10;;;;;;;1.50;1.13;;;24.40;99.90;;;;;;5018533;28;21010;-67
2022/06/06 09:48:10;;;;;;;1.40;1.10;;;23.60;99.10;;;;;;4993310;28;20532;-68
2022/06/06 09:51:04;;;;;;;1.20;0.90;;;22.90;99.90;;;;;;5035621;28;20467;-68
2022/06/06 10:00:13;;;;;;;1.40;1.13;;;25.00;99.30;;;;;;5058355;22;20534;-70
2022/06/06 10:03:27;;;;;;;1.50;1.00;;;25.80;97.50;;;;;;5051018;28;20450;-74
2022/06/06 10:06:21;;;;;;;1.20;0.90;;;24.80;98.80;;;;;;5029641;28;20983;-72
2022/06/06 10:09:31;;;;;;;1.63;1.20;;;24.20;99.90;;;;;;5043666;28;20591;-71
2022/06/06 10:12:31;;;;;;;2.50;1.03;;;24.40;98.90;;;;;;5049267;28;20942;-73
2022/06/06 10:15:18;;;;;;;3.80;1.47;;;24.30;97.50;;;;;;5058009;28;20455;-74
2022/06/06 10:18:33;;;;;;;2.70;1.20;;;23.90;99.90;;;;;;5047030;28;20601;-73
2022/06/06 10:21:26;;;;;;;2.50;1.00;;;24.00;99.40;;;;;;5055744;28;20467;-73
2022/06/06 10:24:29;;;;;;;3.47;1.30;;;24.00;99.70;;;;;;5053597;28;21053;-73
2022/06/06 10:27:06;;;;;;;1.30;0.90;;;25.10;97.80;;;;;;5063537;28;20538;-73
2022/06/06 10:30:14;;;;;;;1.53;1.00;;;25.40;96.80;;;;;;5052429;28;20572;-73
2022/06/06 10:33:20;;;;;;;1.30;0.90;;;26.20;97.80;;;;;;5059324;28;20553;-75
2022/06/06 10:36:11;;;;;;;1.77;0.97;;;27.20;93.30;;;;;;5061963;28;20976;-73
2022/06/06 10:39:02;;;;;;;1.40;1.10;;;27.10;90.40;;;;;;5052473;28;20475;-72
2022/06/06 10:41:52;;;;;;;1.43;0.93;;;26.50;90.00;;;;;;5060276;28;20470;-71
2022/06/06 10:44:35;;;;;;;1.87;0.83;;;25.60;92.00;;;;;;5057833;28;20546;-73
2022/06/06 10:47:15;;;;;;;1.20;0.97;;;24.90;93.90;;;;;;5061699;28;20512;-73
2022/06/06 10:49:48;;;;;;;1.10;0.80;;;25.90;93.50;;;;;;5054281;28;20604;-73
2022/06/06 10:52:39;;;;;;;1.83;1.20;;;26.20;91.70;;;;;;5058786;28;20470;-73
2022/06/06 10:55:44;;;;;;;2.40;1.47;;;26.20;92.80;;;;;;5058385;28;20961;-74
2022/06/06 10:58:54;;;;;;;1.63;1.10;;;25.40;92.50;;;;;;5055190;28;20963;-74
2022/06/06 11:01:57;;;;;;;1.30;1.00;;;25.00;93.00;;;;;;4970575;28;20460;-72
2022/06/06 11:04:51;;;;;;;1.20;0.90;;;25.10;93.50;;;;;;5050376;28;20460;-72
2022/06/06 11:07:56;;;;;;;1.20;1.00;;;25.10;93.50;;;;;;5046283;28;20466;-75
2022/06/06 11:10:42;;;;;;;1.30;0.80;;;26.90;92.80;;;;;;5049788;28;21149;-73
2022/06/06 11:13:36;;;;;;;1.87;0.80;;;27.60;90.30;;;;;;5049445;28;20562;-74
2022/06/06 11:16:42;;;;;;;1.20;0.90;;;27.60;88.30;;;;;;5051061;28;20562;-73
2022/06/06 11:19:41;;;;;;;3.37;1.23;;;27.70;86.90;;;;;;5026425;28;20561;-72
2022/06/06 11:22:27;;;;;;;3.57;1.10;;;28.20;85.10;;;;;;5050193;28;20456;-72
2022/06/06 11:25:01;;;;;;;1.40;1.00;;;27.00;85.60;;;;;;5051071;28;20553;-72
2022/06/06 11:28:02;;;;;;;1.23;0.93;;;25.70;86.70;;;;;;5050967;28;20968;-74
2022/06/06 11:30:49;;;;;;;1.80;1.00;;;24.30;90.90;;;;;;5047929;28;20471;-73
2022/06/06 11:34:07;;;;;;;3.33;1.03;;;23.40;92.90;;;;;;5049312;28;20452;-72
2022/06/06 11:37:19;;;;;;;2.20;1.20;;;22.70;95.20;;;;;;5039023;28;21034;-73
2022/06/06 11:40:16;;;;;;;1.30;1.00;;;22.20;96.50;;;;;;5001751;28;20476;-72
2022/06/06 11:43:05;;;;;;;10.27;1.40;;;21.50;96.90;;;;;;5048462;28;20463;-72
2022/06/06 11:46:19;;;;;;;1.20;1.10;;;20.80;97.10;;;;;;5047071;28;20452;-74
2022/06/06 11:49:21;;;;;;;1.40;0.80;;;21.80;99.50;;;;;;5052235;28;20510;-75
2022/06/06 11:52:24;;;;;;;1.33;0.80;;;22.80;96.70;;;;;;5041478;28;20460;-73
2022/06/06 11:55:20;;;;;;;2.90;0.83;;;21.70;97.40;;;;;;5050347;28;20464;-71
2022/06/06 11:58:13;;;;;;;2.63;1.73;;;21.20;99.70;;;;;;5038868;28;20492;-73
2022/06/06 12:00:54;;;;;;;1.20;1.10;;;20.80;99.90;;;;;;5035862;28;21015;-72
2022/06/06 12:03:59;;;;;;;4.80;1.40;;;20.70;99.90;;;;;;5037007;28;20465;-72
2022/06/06 12:06:51;;;;;;;1.17;0.93;;;19.90;99.90;;;;;;5045066;28;20538;-73
2022/06/06 12:09:26;;;;;;;2.03;1.30;;;19.70;99.90;;;;;;5042472;28;20491;-72
2022/06/06 12:12:18;;;;;;;1.50;1.17;;;19.80;99.90;;;;;;5046280;28;20480;-73
2022/06/06 12:15:17;;;;;;;2.23;1.30;;;19.80;99.90;;;;;;5040228;28;20584;-75
2022/06/06 12:17:56;;;;;;;2.13;1.00;;;21.30;99.90;;;;;;5047772;28;20507;-72
2022/06/06 12:20:53;;;;;;;2.40;0.83;;;22.50;99.90;;;;;;5047016;28;20470;-74
2022/06/06 12:23:29;;;;;;;2.10;1.20;;;22.90;99.90;;;;;;5043892;28;20518;-71
2022/06/06 12:26:19;;;;;;;1.97;1.00;;;22.40;99.90;;;;;;5051006;28;20454;-72
2022/06/06 12:29:24;;;;;;;1.47;1.00;;;22.60;99.90;;;;;;5044724;28;20810;-72
2022/06/06 12:32:03;;;;;;;2.07;1.10;;;22.70;99.90;;;;;;5045135;28;20825;-73
2022/06/06 12:34:40;;;;;;;1.20;0.90;;;22.20;99.90;;;;;;5044051;28;20462;-71
2022/06/06 12:37:14;;;;;;;2.43;1.30;;;22.20;99.90;;;;;;5044490;28;21074;-72
2022/06/06 12:39:52;;;;;;;1.40;1.10;;;22.60;99.90;;;;;;5042519;28;20480;-74
2022/06/06 12:42:28;;;;;;;3.20;1.07;;;22.90;99.90;;;;;;5042281;28;20553;-73
2022/06/06 12:45:31;;;;;;;1.23;0.80;;;23.60;99.90;;;;;;5042456;28;20912;-74
2022/06/06 12:48:25;;;;;;;1.70;0.90;;;24.60;99.90;;;;;;5047488;28;20451;-74
2022/06/06 12:51:01;;;;;;;2.27;1.10;;;25.50;99.50;;;;;;5041462;28;20459;-72
2022/06/06 12:53:49;;;;;;;1.63;1.00;;;25.80;98.10;;;;;;5042254;28;20464;-73
2022/06/06 12:56:25;;;;;;;4.50;1.07;;;25.70;96.70;;;;;;5045373;28;20486;-72
2022/06/06 12:59:17;;;;;;;2.70;1.40;;;26.60;93.90;;;;;;5042155;28;20739;-72
2022/06/06 13:01:52;;;;;;;1.60;1.20;;;26.60;93.90;;;;;;5040816;28;20455;-72
2022/06/06 13:04:44;;;;;;;1.80;1.10;;;26.50;92.90;;;;;;5047354;28;20554;-72
2022/06/06 13:07:23;;;;;;;1.30;1.00;;;26.40;92.10;;;;;;5038824;28;20456;-71
2022/06/06 13:10:03;;;;;;;1.20;0.93;;;25.80;92.80;;;;;;5044600;28;20491;-74
2022/06/06 13:12:46;;;;;;;2.10;1.50;;;25.70;92.60;;;;;;5049472;28;20455;-72
2022/06/06 13:15:24;;;;;;;1.40;1.13;;;25.50;93.40;;;;;;5041071;28;21033;-72
2022/06/06 13:18:06;;;;;;;1.30;1.10;;;26.20;91.80;;;;;;5050224;28;20573;-73
2022/06/06 13:20:41;;;;;;;4.90;1.53;;;26.60;90.50;;;;;;5051809;28;20485;-73
2022/06/06 13:23:29;;;;;;;1.40;1.07;;;26.20;90.30;;;;;;5046645;28;20476;-72
2022/06/06 13:26:19;;;;;;;2.80;1.70;;;25.90;90.40;;;;;;5039719;28;20588;-73
2022/06/06 13:28:50;;;;;;;5.13;1.47;;;25.30;91.90;;;;;;5053995;28;20474;-73
2022/06/06 13:31:37;;;;;;;1.50;1.10;;;25.60;93.30;;;;;;5048613;28;20593;-73
2022/06/06 13:34:34;;;;;;;2.10;1.63;;;26.20;91.50;;;;;;5048078;28;20457;-71
2022/06/06 13:37:16;;;;;;;1.50;1.00;;;25.80;92.20;;;;;;5045059;28;20491;-71
2022/06/06 13:40:16;;;;;;;2.33;2.10;;;24.40;94.50;;;;;;5050102;28;20483;-72
2022/06/06 13:43:27;;;;;;;2.60;1.07;;;23.40;96.70;;;;;;5036414;28;20486;-74
2022/06/06 13:46:06;;;;;;;1.50;1.20;;;23.40;96.80;;;;;;5050635;28;20763;-73
2022/06/06 13:48:53;;;;;;;2.90;1.30;;;24.40;95.80;;;;;;5057369;28;20570;-73
2022/06/06 13:51:37;;;;;;;1.60;1.23;;;23.70;96.90;;;;;;5057751;28;20601;-72
2022/06/06 13:54:06;;;;;;;1.83;1.50;;;23.90;96.90;;;;;;5052907;28;20474;-73
2022/06/06 13:57:00;;;;;;;2.27;1.53;;;24.10;97.20;;;;;;5048562;28;20957;-73
2022/06/06 13:59:56;;;;;;;2.03;1.20;;;24.60;97.70;;;;;;5045663;28;20490;-74
2022/06/06 14:02:36;;;;;;;3.90;1.30;;;24.30;96.10;;;;;;5044976;28;20469;-74
2022/06/06 14:05:25;;;;;;;1.20;0.80;;;24.00;96.10;;;;;;5042361;28;20818;-73
2022/06/06 14:08:06;;;;;;;1.47;1.37;;;23.70;94.90;;;;;;5040255;28;20580;-74
2022/06/06 14:10:40;;;;;;;2.50;1.20;;;23.70;95.00;;;;;;5043257;28;21017;-71
2022/06/06 14:13:16;;;;;;;1.60;1.20;;;23.30;94.00;;;;;;5046269;28;21018;-75